createdAt,value
2016-12-13T00:00:04.767Z,6.83
2016-12-13T00:00:26.486Z,6.81
2016-12-13T00:00:54.975Z,6.81
2016-12-13T00:01:24.436Z,6.80
2016-12-13T00:02:40.167Z,6.82
2016-12-13T00:03:01.914Z,6.88
2016-12-13T00:03:34.181Z,6.88
2016-12-13T00:03:58.852Z,6.87
2016-12-13T00:04:25.359Z,6.88
2016-12-13T00:04:47.089Z,6.85
2016-12-13T00:05:08.846Z,6.82
2016-12-13T00:05:30.597Z,6.79
2016-12-13T00:06:23.592Z,6.80
2016-12-13T00:06:59.627Z,6.76
2016-12-13T00:07:27.438Z,6.74
2016-12-13T00:07:49.179Z,6.73
2016-12-13T00:08:13.819Z,6.73
2016-12-13T00:08:41.358Z,6.67
2016-12-13T00:09:03.111Z,6.62
2016-12-13T00:09:24.862Z,6.63
2016-12-13T00:09:46.622Z,6.61
2016-12-13T00:10:08.361Z,6.61
2016-12-13T00:10:34.896Z,6.60
2016-12-13T00:11:02.390Z,6.63
2016-12-13T00:11:27.042Z,6.64
2016-12-13T00:11:52.381Z,6.59
2016-12-13T00:12:26.526Z,6.53
2016-12-13T00:12:54.012Z,6.54
2016-12-13T00:13:15.803Z,6.51
2016-12-13T00:13:38.531Z,6.52
2016-12-13T00:14:09.792Z,6.52
2016-12-13T00:15:09.177Z,6.54
2016-12-13T00:15:39.310Z,6.48
2016-12-13T00:16:05.801Z,6.47
2016-12-13T00:16:27.702Z,6.50
2016-12-13T00:16:49.440Z,6.51
2016-12-13T00:17:11.179Z,6.48
2016-12-13T00:17:32.939Z,6.53
2016-12-13T00:17:54.670Z,6.47
2016-12-13T00:18:16.488Z,6.46
2016-12-13T00:18:38.214Z,6.41
2016-12-13T00:19:01.942Z,6.38
2016-12-13T00:19:24.688Z,6.38
2016-12-13T00:19:51.232Z,6.38
2016-12-13T00:20:22.491Z,6.36
2016-12-13T00:20:49.003Z,6.31
2016-12-13T00:21:16.494Z,6.30
2016-12-13T00:21:38.267Z,6.32
2016-12-13T00:22:01.019Z,6.29
2016-12-13T00:22:35.115Z,6.35
2016-12-13T00:24:14.193Z,6.38
2016-12-13T00:24:35.953Z,6.36
2016-12-13T00:24:57.683Z,6.39
2016-12-13T00:25:19.408Z,6.38
2016-12-13T00:25:41.117Z,6.33
2016-12-13T00:26:02.875Z,6.32
2016-12-13T00:26:58.661Z,6.42
2016-12-13T00:27:51.662Z,6.49
2016-12-13T00:29:14.174Z,6.54
2016-12-13T00:31:00.771Z,6.47
2016-12-13T00:31:23.002Z,6.46
2016-12-13T00:31:44.731Z,6.46
2016-12-13T00:32:11.239Z,6.46
2016-12-13T00:33:06.269Z,6.46
2016-12-13T00:33:54.575Z,6.49
2016-12-13T00:34:16.392Z,6.51
2016-12-13T00:34:42.890Z,6.45
2016-12-13T00:35:09.423Z,6.44
2016-12-13T00:36:05.363Z,6.41
2016-12-13T00:36:27.101Z,6.36
2016-12-13T00:37:21.093Z,6.39
2016-12-13T00:37:42.853Z,6.40
2016-12-13T00:38:09.359Z,6.39
2016-12-13T00:38:33.936Z,6.41
2016-12-13T00:38:55.695Z,6.43
2016-12-13T00:39:17.446Z,6.46
2016-12-13T00:39:41.866Z,6.50
2016-12-13T00:40:05.597Z,6.51
2016-12-13T00:40:30.991Z,6.53
2016-12-13T00:40:57.483Z,6.48
2016-12-13T00:41:45.815Z,6.43
2016-12-13T00:42:43.853Z,6.34
2016-12-13T00:43:15.119Z,6.33
2016-12-13T00:43:36.840Z,6.32
2016-12-13T00:43:59.586Z,6.32
2016-12-13T00:44:27.096Z,6.22
2016-12-13T00:44:48.874Z,6.13
2016-12-13T00:45:15.374Z,6.16
2016-12-13T00:45:44.828Z,6.20
2016-12-13T00:46:06.600Z,6.24
2016-12-13T00:46:29.349Z,6.19
2016-12-13T00:47:31.872Z,6.17
2016-12-13T00:47:58.359Z,6.21
2016-12-13T00:48:21.091Z,6.21
2016-12-13T00:48:45.421Z,6.20
2016-12-13T00:49:11.915Z,6.20
2016-12-13T00:49:33.668Z,6.18
2016-12-13T00:50:00.177Z,6.20
2016-12-13T00:50:21.940Z,6.17
2016-12-13T00:50:53.199Z,6.18
2016-12-13T00:51:16.058Z,6.19
2016-12-13T00:51:37.797Z,6.19
2016-12-13T00:52:00.573Z,6.14
2016-12-13T00:52:23.362Z,6.14
2016-12-13T00:53:58.188Z,6.12
2016-12-13T00:54:28.509Z,6.15
2016-12-13T00:54:50.242Z,6.12
2016-12-13T00:55:15.642Z,6.11
2016-12-13T00:55:37.393Z,6.08
2016-12-13T00:56:00.145Z,6.11
2016-12-13T00:56:49.482Z,6.05
2016-12-13T00:57:11.215Z,6.05
2016-12-13T00:57:37.712Z,6.04
2016-12-13T00:58:00.694Z,6.03
2016-12-13T00:59:00.114Z,6.01
2016-12-13T00:59:23.870Z,6.03
2016-12-13T00:59:48.685Z,6.04
2016-12-13T01:00:16.189Z,5.99
2016-12-13T01:00:41.655Z,6.00
2016-12-13T01:01:03.721Z,5.98
2016-12-13T01:01:30.231Z,5.93
2016-12-13T01:02:23.288Z,6.00
2016-12-13T01:02:45.163Z,6.01
2016-12-13T01:03:06.935Z,5.97
2016-12-13T01:04:06.487Z,5.90
2016-12-13T01:04:30.321Z,5.92
2016-12-13T01:05:02.661Z,5.95
2016-12-13T01:05:34.929Z,5.91
2016-12-13T01:06:07.186Z,5.89
2016-12-13T01:06:28.924Z,5.88
2016-12-13T01:06:58.382Z,5.83
2016-12-13T01:07:24.030Z,5.83
2016-12-13T01:07:46.750Z,5.79
2016-12-13T01:08:14.123Z,5.80
2016-12-13T01:08:45.430Z,5.81
2016-12-13T01:09:07.166Z,5.76
2016-12-13T01:09:29.923Z,5.73
2016-12-13T01:10:53.165Z,5.77
2016-12-13T01:11:17.653Z,5.80
2016-12-13T01:11:40.387Z,5.93
2016-12-13T01:12:38.649Z,5.91
2016-12-13T01:13:10.903Z,5.83
2016-12-13T01:14:41.666Z,5.72
2016-12-13T01:15:06.401Z,5.65
2016-12-13T01:15:37.478Z,5.56
2016-12-13T01:16:03.972Z,5.56
2016-12-13T01:17:09.374Z,5.54
2016-12-13T01:17:35.873Z,5.55
2016-12-13T01:18:02.394Z,5.57
2016-12-13T01:18:24.161Z,5.60
2016-12-13T01:18:45.919Z,5.58
2016-12-13T01:19:07.772Z,5.52
2016-12-13T01:19:29.575Z,5.41
2016-12-13T01:19:52.033Z,5.31
2016-12-13T01:20:23.356Z,5.23
2016-12-13T01:20:45.262Z,5.23
2016-12-13T01:21:17.529Z,5.19
2016-12-13T01:21:40.291Z,5.23
2016-12-13T01:22:05.737Z,5.26
2016-12-13T01:22:27.478Z,5.24
2016-12-13T01:23:00.483Z,5.24
2016-12-13T01:23:27.131Z,5.27
2016-12-13T01:23:54.631Z,5.35
2016-12-13T01:25:08.669Z,5.32
2016-12-13T01:25:37.195Z,5.40
2016-12-13T01:26:37.318Z,5.50
2016-12-13T01:27:01.982Z,5.53
2016-12-13T01:27:31.007Z,5.55
2016-12-13T01:27:57.508Z,5.55
2016-12-13T01:28:29.086Z,5.66
2016-12-13T01:28:51.811Z,5.71
2016-12-13T01:29:18.305Z,5.68
2016-12-13T01:29:54.339Z,5.77
2016-12-13T01:30:22.326Z,5.84
2016-12-13T01:30:44.147Z,5.82
2016-12-13T01:31:07.865Z,5.78
2016-12-13T01:32:03.425Z,5.65
2016-12-13T01:32:26.180Z,5.49
2016-12-13T01:32:48.916Z,5.45
2016-12-13T01:33:15.450Z,5.35
2016-12-13T01:33:46.715Z,5.34
2016-12-13T01:34:13.204Z,5.37
2016-12-13T01:34:47.102Z,5.44
2016-12-13T01:35:41.112Z,5.45
2016-12-13T01:36:07.624Z,5.45
2016-12-13T01:37:01.628Z,5.43
2016-12-13T01:37:23.369Z,5.42
2016-12-13T01:37:47.108Z,5.43
2016-12-13T01:38:14.598Z,5.46
2016-12-13T01:38:42.112Z,5.47
2016-12-13T01:39:13.377Z,5.44
2016-12-13T01:39:35.166Z,5.40
2016-12-13T01:39:57.921Z,5.40
2016-12-13T01:40:22.641Z,5.47
2016-12-13T01:40:49.150Z,5.47
2016-12-13T01:41:12.875Z,5.47
2016-12-13T01:41:35.639Z,5.46
2016-12-13T01:41:58.449Z,5.47
2016-12-13T01:42:20.212Z,5.44
2016-12-13T01:43:20.777Z,5.43
2016-12-13T01:43:45.398Z,5.44
2016-12-13T01:44:43.641Z,5.48
2016-12-13T01:45:05.430Z,5.46
2016-12-13T01:45:27.241Z,5.46
2016-12-13T01:45:49.965Z,5.49
2016-12-13T01:46:49.723Z,5.49
2016-12-13T01:47:18.214Z,5.51
2016-12-13T01:47:46.760Z,5.50
2016-12-13T01:49:25.941Z,5.40
2016-12-13T01:49:51.497Z,5.36
2016-12-13T01:50:50.287Z,5.36
2016-12-13T01:51:21.656Z,5.34
2016-12-13T01:51:43.689Z,5.29
2016-12-13T01:52:05.449Z,5.28
2016-12-13T01:52:32.159Z,5.33
2016-12-13T01:53:07.169Z,5.42
2016-12-13T01:55:41.626Z,5.47
2016-12-13T02:00:44.989Z,5.28
2016-12-13T02:15:07.510Z,5.36
2016-12-13T02:18:05.922Z,5.36
2016-12-13T02:18:42.778Z,5.24
2016-12-13T02:19:19.811Z,5.19
2016-12-13T02:19:57.095Z,5.19
2016-12-13T02:20:33.769Z,5.19
2016-12-13T02:20:55.528Z,5.18
2016-12-13T02:21:18.299Z,5.21
2016-12-13T02:21:40.029Z,5.27
2016-12-13T02:22:49.026Z,5.27
2016-12-13T02:24:07.640Z,5.33
2016-12-13T02:27:27.537Z,5.28
2016-12-13T02:33:00.034Z,5.04
2016-12-13T02:41:37.106Z,5.20
2016-12-13T02:42:32.455Z,5.24
2016-12-13T02:43:18.315Z,5.11
2016-12-13T02:45:49.459Z,5.27
2016-12-13T02:46:22.755Z,5.25
2016-12-13T02:46:55.070Z,5.26
2016-12-13T02:49:51.953Z,5.13
2016-12-13T02:54:13.215Z,5.32
2016-12-13T02:55:30.392Z,5.22
2016-12-13T02:56:12.011Z,5.24
2016-12-13T02:56:38.634Z,5.22
2016-12-13T03:02:11.125Z,5.60
2016-12-13T03:05:02.829Z,5.61
2016-12-13T03:07:34.274Z,5.37
2016-12-13T03:10:00.155Z,5.19
2016-12-13T03:11:59.322Z,5.30
2016-12-13T03:13:49.517Z,5.36
2016-12-13T03:17:06.256Z,5.41
2016-12-13T03:17:33.979Z,5.30
2016-12-13T03:25:47.864Z,5.55
2016-12-13T04:05:17.762Z,4.92
2016-12-13T04:06:05.975Z,4.96
2016-12-13T04:06:28.714Z,4.97
2016-12-13T04:06:59.976Z,5.01
2016-12-13T04:07:30.012Z,5.00
2016-12-13T04:07:55.318Z,5.11
2016-12-13T04:08:56.551Z,5.08
2016-12-13T04:10:08.244Z,4.97
2016-12-13T04:10:35.253Z,4.86
2016-12-13T04:10:57.109Z,4.87
2016-12-13T04:11:26.453Z,4.83
2016-12-13T04:12:02.301Z,4.68
2016-12-13T04:13:44.482Z,4.80
2016-12-13T04:14:44.791Z,4.68
2016-12-13T04:15:10.026Z,4.79
2016-12-13T04:16:08.808Z,4.84
2016-12-13T04:16:44.870Z,4.89
2016-12-13T04:17:14.989Z,4.94
2016-12-13T04:17:40.378Z,5.01
2016-12-13T04:18:02.152Z,4.98
2016-12-13T04:18:38.188Z,4.81
2016-12-13T04:19:31.066Z,4.40
2016-12-13T04:19:55.432Z,4.39
2016-12-13T04:20:17.205Z,4.53
2016-12-13T04:20:45.706Z,4.56
2016-12-13T04:21:44.472Z,4.66
2016-12-13T04:22:10.987Z,4.62
2016-12-13T04:22:43.258Z,4.40
2016-12-13T04:23:40.848Z,4.39
2016-12-13T04:25:09.982Z,4.23
2016-12-13T04:25:41.254Z,4.22
2016-12-13T04:26:03.013Z,4.30
2016-12-13T04:26:32.408Z,4.32
2016-12-13T04:26:58.907Z,4.16
2016-12-13T04:27:57.700Z,3.87
2016-12-13T04:28:19.431Z,3.97
2016-12-13T04:28:46.947Z,4.05
2016-12-13T04:29:13.548Z,4.17
2016-12-13T04:29:40.907Z,4.38
2016-12-13T04:30:10.128Z,4.52
2016-12-13T04:30:46.164Z,4.51
2016-12-13T04:31:14.263Z,4.41
2016-12-13T04:32:25.232Z,4.39
2016-12-13T04:33:18.238Z,4.26
2016-12-13T04:33:49.496Z,4.22
2016-12-13T04:34:15.814Z,4.23
2016-12-13T04:34:42.335Z,4.40
2016-12-13T04:35:09.450Z,4.50
2016-12-13T04:35:31.235Z,4.60
2016-12-13T04:37:14.885Z,4.63
2016-12-13T04:37:50.540Z,4.74
2016-12-13T04:38:21.932Z,4.71
2016-12-13T04:38:44.721Z,4.76
2016-12-13T04:39:13.947Z,4.75
2016-12-13T04:39:48.060Z,4.85
2016-12-13T04:40:19.401Z,4.74
2016-12-13T04:40:51.519Z,4.52
2016-12-13T04:43:24.758Z,4.56
2016-12-13T04:43:48.622Z,4.52
2016-12-13T04:44:14.406Z,4.48
2016-12-13T04:44:50.575Z,4.40
2016-12-13T04:45:25.660Z,4.29
2016-12-13T04:46:38.246Z,4.01
2016-12-13T04:48:01.531Z,3.81
2016-12-13T04:49:10.802Z,4.13
2016-12-13T04:54:19.844Z,4.28
2016-12-13T04:54:46.348Z,4.16
2016-12-13T05:00:02.987Z,4.68
2016-12-13T05:00:39.030Z,4.43
2016-12-13T05:01:49.254Z,4.54
2016-12-13T05:02:25.290Z,4.51
2016-12-13T05:03:07.103Z,4.47
2016-12-13T05:05:05.950Z,4.65
2016-12-13T05:25:41.132Z,4.18
2016-12-13T05:29:00.755Z,4.75
2016-12-13T05:30:11.922Z,4.32
2016-12-13T05:35:02.962Z,4.15
2016-12-13T05:38:21.142Z,4.62
2016-12-13T05:42:33.559Z,4.03
2016-12-13T05:50:13.180Z,4.01
2016-12-13T05:52:21.858Z,4.09
2016-12-13T05:54:19.385Z,4.15
2016-12-13T05:55:08.796Z,4.45
2016-12-13T05:58:36.809Z,4.30
2016-12-13T06:00:38.996Z,4.34
2016-12-13T06:01:49.011Z,4.57
2016-12-13T06:06:19.929Z,4.35
2016-12-13T06:12:35.938Z,4.12
2016-12-13T06:13:53.830Z,4.06
2016-12-13T06:14:34.861Z,4.31
2016-12-13T06:14:59.770Z,4.41
2016-12-13T06:19:56.569Z,4.07
2016-12-13T06:20:29.086Z,4.16
2016-12-13T06:21:36.388Z,3.56
2016-12-13T06:22:08.697Z,3.63
2016-12-13T06:22:42.520Z,3.80
2016-12-13T06:23:58.164Z,4.03
2016-12-13T06:24:27.499Z,4.12
2016-12-13T06:24:54.010Z,4.04
2016-12-13T06:28:01.428Z,4.07
2016-12-13T06:28:29.039Z,3.90
2016-12-13T06:32:23.242Z,3.41
2016-12-13T06:33:36.295Z,3.67
2016-12-13T06:34:02.935Z,3.77
2016-12-13T06:36:27.209Z,3.83
2016-12-13T06:38:06.655Z,3.85
2016-12-13T06:39:57.939Z,3.91
2016-12-13T06:42:26.087Z,3.92
2016-12-13T06:45:09.328Z,3.58
2016-12-13T06:45:40.622Z,3.61
2016-12-13T06:46:55.996Z,3.87
2016-12-13T06:48:48.974Z,4.16
2016-12-13T06:49:52.654Z,4.12
2016-12-13T06:50:16.407Z,4.12
2016-12-13T06:51:24.703Z,4.16
2016-12-13T06:51:58.599Z,4.17
2016-12-13T06:52:29.890Z,4.18
2016-12-13T06:53:01.219Z,4.08
2016-12-13T06:54:48.374Z,3.56
2016-12-13T06:56:21.046Z,3.79
2016-12-13T06:56:52.339Z,3.67
2016-12-13T06:57:56.376Z,3.93
2016-12-13T06:59:09.003Z,3.65
2016-12-13T06:59:58.265Z,3.83
2016-12-13T07:00:22.590Z,3.72
2016-12-13T07:00:46.990Z,3.34
2016-12-13T07:01:54.300Z,3.50
2016-12-13T07:02:54.067Z,3.41
2016-12-13T07:03:20.695Z,3.38
2016-12-13T07:04:28.846Z,3.59
2016-12-13T07:04:58.070Z,3.56
2016-12-13T07:05:33.159Z,3.53
2016-12-13T07:05:54.916Z,3.45
2016-12-13T07:06:20.652Z,3.57
2016-12-13T07:07:10.164Z,3.63
2016-12-13T07:07:34.622Z,3.75
2016-12-13T07:08:01.945Z,3.79
2016-12-13T07:08:33.246Z,3.61
2016-12-13T07:09:07.328Z,3.42
2016-12-13T07:09:33.654Z,3.47
2016-12-13T07:10:09.684Z,3.36
2016-12-13T07:10:31.931Z,3.36
2016-12-13T07:11:02.956Z,3.45
2016-12-13T07:11:29.460Z,3.72
2016-12-13T07:11:55.996Z,3.46
2016-12-13T07:13:41.357Z,3.66
2016-12-13T07:14:17.388Z,3.54
2016-12-13T07:14:40.841Z,3.45
2016-12-13T07:15:34.888Z,3.59
2016-12-13T07:16:02.406Z,3.52
2016-12-13T07:16:24.131Z,3.41
2016-12-13T07:17:19.131Z,3.20
2016-12-13T07:17:41.920Z,3.35
2016-12-13T07:18:30.141Z,3.59
2016-12-13T07:18:52.878Z,3.45
2016-12-13T07:19:41.131Z,3.44
2016-12-13T07:20:08.667Z,3.57
2016-12-13T07:20:30.449Z,3.70
2016-12-13T07:20:56.964Z,3.85
2016-12-13T07:21:18.686Z,3.85
2016-12-13T07:21:43.365Z,3.83
2016-12-13T07:22:14.632Z,3.92
2016-12-13T07:22:36.367Z,3.96
2016-12-13T07:22:58.104Z,3.93
2016-12-13T07:23:20.014Z,3.96
2016-12-13T07:23:41.728Z,3.90
2016-12-13T07:24:03.539Z,3.93
2016-12-13T07:24:25.355Z,3.98
2016-12-13T07:24:48.075Z,3.93
2016-12-13T07:25:09.813Z,3.94
2016-12-13T07:25:36.352Z,3.89
2016-12-13T07:25:59.072Z,3.89
2016-12-13T07:26:20.856Z,3.94
2016-12-13T07:26:43.599Z,3.91
2016-12-13T07:27:05.327Z,3.87
2016-12-13T07:27:28.056Z,3.83
2016-12-13T07:27:49.792Z,3.78
2016-12-13T07:28:11.509Z,3.84
2016-12-13T07:28:33.248Z,3.63
2016-12-13T07:28:55.005Z,3.46
2016-12-13T07:29:58.069Z,3.60
2016-12-13T07:30:19.809Z,3.71
2016-12-13T07:30:47.312Z,3.83
2016-12-13T07:31:10.161Z,3.80
2016-12-13T07:31:31.914Z,3.81
2016-12-13T07:31:58.418Z,3.89
2016-12-13T07:32:21.168Z,3.80
2016-12-13T07:32:43.907Z,3.74
2016-12-13T07:33:05.648Z,3.78
2016-12-13T07:33:32.143Z,3.78
2016-12-13T07:33:53.910Z,3.84
2016-12-13T07:34:21.426Z,3.75
2016-12-13T07:34:44.157Z,3.77
2016-12-13T07:35:06.904Z,3.74
2016-12-13T07:35:28.617Z,3.66
2016-12-13T07:35:52.341Z,3.72
2016-12-13T07:36:19.840Z,3.68
2016-12-13T07:36:46.338Z,3.41
2016-12-13T07:37:09.080Z,3.40
2016-12-13T07:37:35.567Z,3.54
2016-12-13T07:37:58.317Z,3.59
2016-12-13T07:38:24.831Z,3.64
2016-12-13T07:39:14.034Z,3.66
2016-12-13T07:39:41.528Z,3.74
2016-12-13T07:40:03.274Z,3.81
2016-12-13T07:40:29.766Z,3.75
2016-12-13T07:40:51.553Z,3.70
2016-12-13T07:41:18.050Z,3.67
2016-12-13T07:41:49.319Z,3.33
2016-12-13T07:42:11.060Z,3.17
2016-12-13T07:42:37.559Z,3.41
2016-12-13T07:43:26.816Z,3.35
2016-12-13T07:43:54.307Z,3.40
2016-12-13T07:44:16.047Z,3.49
2016-12-13T07:45:09.067Z,3.71
2016-12-13T07:45:32.111Z,3.52
2016-12-13T07:45:53.856Z,3.44
2016-12-13T07:46:54.395Z,3.49
2016-12-13T07:47:25.693Z,3.55
2016-12-13T07:47:48.448Z,3.58
2016-12-13T07:48:13.290Z,3.69
2016-12-13T07:48:40.021Z,3.78
2016-12-13T07:49:06.517Z,3.87
2016-12-13T07:49:33.021Z,3.98
2016-12-13T07:49:54.915Z,4.03
2016-12-13T07:50:16.693Z,4.00
2016-12-13T07:50:43.359Z,3.97
2016-12-13T07:52:35.706Z,3.90
2016-12-13T07:53:02.208Z,3.82
2016-12-13T07:53:24.978Z,3.79
2016-12-13T07:53:48.694Z,3.77
2016-12-13T07:54:16.234Z,3.85
2016-12-13T07:54:38.980Z,3.87
2016-12-13T07:55:33.994Z,3.96
2016-12-13T07:55:55.731Z,3.78
2016-12-13T07:56:17.492Z,3.76
2016-12-13T07:56:45.018Z,3.77
2016-12-13T07:57:43.274Z,3.84
2016-12-13T07:58:37.275Z,3.79
2016-12-13T07:58:59.009Z,3.77
2016-12-13T07:59:25.500Z,3.75
2016-12-13T07:59:48.224Z,3.75
2016-12-13T08:00:14.727Z,3.71
2016-12-13T08:00:41.236Z,3.61
2016-12-13T08:01:07.725Z,3.44
2016-12-13T08:01:29.448Z,3.43
2016-12-13T08:01:56.955Z,3.54
2016-12-13T08:02:18.728Z,3.60
2016-12-13T08:02:41.424Z,3.74
2016-12-13T08:03:37.143Z,3.84
2016-12-13T08:03:59.909Z,3.87
2016-12-13T08:04:22.630Z,3.83
2016-12-13T08:04:45.418Z,3.79
2016-12-13T08:05:08.133Z,3.81
2016-12-13T08:05:29.880Z,3.67
2016-12-13T08:05:51.619Z,3.67
2016-12-13T08:06:13.349Z,3.60
2016-12-13T08:06:35.105Z,3.68
2016-12-13T08:07:01.616Z,3.75
2016-12-13T08:07:28.104Z,3.83
2016-12-13T08:07:52.832Z,3.83
2016-12-13T08:08:16.552Z,3.61
2016-12-13T08:08:47.830Z,3.60
2016-12-13T08:09:10.567Z,3.68
2016-12-13T08:09:32.308Z,3.82
2016-12-13T08:09:54.073Z,3.97
2016-12-13T08:10:21.571Z,4.04
2016-12-13T08:11:16.119Z,3.67
2016-12-13T08:11:37.873Z,3.60
2016-12-13T08:11:59.628Z,3.65
2016-12-13T08:12:22.420Z,3.73
2016-12-13T08:12:44.148Z,3.83
2016-12-13T08:13:05.885Z,3.77
2016-12-13T08:13:37.241Z,3.85
2016-12-13T08:14:00.315Z,3.95
2016-12-13T08:14:26.972Z,3.85
2016-12-13T08:14:53.457Z,3.92
2016-12-13T08:15:56.731Z,4.00
2016-12-13T08:16:28.031Z,4.01
2016-12-13T08:16:49.745Z,4.00
2016-12-13T08:17:11.475Z,4.00
2016-12-13T08:17:33.212Z,4.00
2016-12-13T08:17:55.951Z,4.04
2016-12-13T08:18:18.690Z,4.02
2016-12-13T08:18:45.193Z,4.02
2016-12-13T08:19:06.908Z,4.03
2016-12-13T08:19:33.513Z,4.00
2016-12-13T08:19:57.263Z,3.92
2016-12-13T08:20:46.527Z,3.84
2016-12-13T08:21:17.795Z,3.84
2016-12-13T08:21:40.517Z,3.86
2016-12-13T08:22:39.277Z,4.00
2016-12-13T08:23:01.012Z,4.04
2016-12-13T08:23:23.739Z,4.06
2016-12-13T08:23:50.233Z,4.07
2016-12-13T08:24:11.959Z,4.04
2016-12-13T08:24:38.465Z,4.06
2016-12-13T08:25:05.967Z,4.01
2016-12-13T08:25:27.725Z,4.08
2016-12-13T08:25:54.230Z,4.14
2016-12-13T08:26:23.340Z,4.08
2016-12-13T08:26:45.063Z,4.07
2016-12-13T08:27:06.812Z,4.09
2016-12-13T08:27:28.559Z,4.16
2016-12-13T08:27:55.067Z,4.15
2016-12-13T08:28:16.794Z,4.16
2016-12-13T08:28:39.527Z,4.03
2016-12-13T08:29:06.026Z,3.97
2016-12-13T08:29:27.751Z,3.93
2016-12-13T08:29:49.513Z,3.91
2016-12-13T08:30:12.259Z,3.97
2016-12-13T08:30:35.000Z,3.85
2016-12-13T08:31:02.509Z,3.79
2016-12-13T08:31:25.333Z,3.83
2016-12-13T08:31:47.055Z,3.89
2016-12-13T08:32:11.529Z,3.90
2016-12-13T08:32:34.129Z,3.94
2016-12-13T08:32:56.901Z,4.03
2016-12-13T08:33:19.636Z,3.99
2016-12-13T08:33:46.134Z,3.74
2016-12-13T08:34:12.759Z,3.74
2016-12-13T08:35:05.778Z,3.57
2016-12-13T08:35:32.319Z,3.66
2016-12-13T08:35:54.059Z,3.76
2016-12-13T08:36:16.796Z,3.84
2016-12-13T08:36:48.153Z,3.80
2016-12-13T08:37:41.159Z,3.53
2016-12-13T08:38:07.679Z,3.58
2016-12-13T08:38:30.413Z,3.70
2016-12-13T08:38:56.923Z,3.76
2016-12-13T08:39:18.709Z,3.83
2016-12-13T08:39:45.213Z,3.90
2016-12-13T08:40:14.226Z,3.98
2016-12-13T08:40:36.036Z,3.94
2016-12-13T08:40:57.776Z,3.96
2016-12-13T08:41:19.508Z,3.93
2016-12-13T08:41:46.020Z,3.94
2016-12-13T08:42:12.527Z,3.94
2016-12-13T08:43:07.335Z,3.91
2016-12-13T08:43:30.073Z,3.93
2016-12-13T08:43:57.716Z,3.78
2016-12-13T08:44:51.735Z,3.67
2016-12-13T08:46:15.985Z,3.82
2016-12-13T08:46:42.485Z,3.98
2016-12-13T08:47:04.228Z,4.00
2016-12-13T08:47:25.952Z,4.05
2016-12-13T08:47:47.682Z,3.96
2016-12-13T08:48:14.730Z,3.82
2016-12-13T08:49:09.735Z,3.82
2016-12-13T08:49:31.462Z,3.70
2016-12-13T08:49:53.206Z,3.62
2016-12-13T08:50:14.932Z,3.75
2016-12-13T08:50:37.662Z,3.85
2016-12-13T08:51:05.156Z,3.90
2016-12-13T08:51:26.904Z,3.95
2016-12-13T08:51:48.641Z,4.01
2016-12-13T08:52:10.465Z,4.09
2016-12-13T08:52:36.966Z,4.00
2016-12-13T08:52:58.702Z,4.01
2016-12-13T08:53:20.491Z,4.03
2016-12-13T08:53:46.990Z,4.04
2016-12-13T08:54:08.715Z,4.09
2016-12-13T08:54:30.571Z,4.14
2016-12-13T08:54:52.302Z,3.89
2016-12-13T08:55:14.025Z,3.83
2016-12-13T08:55:35.747Z,3.75
2016-12-13T08:56:02.242Z,3.67
2016-12-13T08:56:23.964Z,3.81
2016-12-13T08:56:45.686Z,3.78
2016-12-13T08:57:08.415Z,3.78
2016-12-13T08:57:30.153Z,3.82
2016-12-13T08:57:51.903Z,3.88
2016-12-13T08:58:13.625Z,3.98
2016-12-13T08:59:04.843Z,4.12
2016-12-13T08:59:26.571Z,4.14
2016-12-13T08:59:48.307Z,4.23
2016-12-13T09:00:10.036Z,4.27
2016-12-13T09:00:35.441Z,4.20
2016-12-13T09:01:01.939Z,4.07
2016-12-13T09:01:24.684Z,3.96
2016-12-13T09:01:47.411Z,3.99
2016-12-13T09:02:09.134Z,4.08
2016-12-13T09:02:30.883Z,4.03
2016-12-13T09:02:52.625Z,3.99
2016-12-13T09:03:15.347Z,3.97
2016-12-13T09:03:37.109Z,4.04
2016-12-13T09:04:08.383Z,4.01
2016-12-13T09:04:30.095Z,3.92
2016-12-13T09:05:50.603Z,4.04
2016-12-13T09:06:38.833Z,4.09
2016-12-13T09:07:00.563Z,4.15
2016-12-13T09:07:22.303Z,4.09
2016-12-13T09:07:49.795Z,4.13
2016-12-13T09:08:11.526Z,4.21
2016-12-13T09:08:34.278Z,4.26
2016-12-13T09:08:58.612Z,4.34
2016-12-13T09:09:20.361Z,4.37
2016-12-13T09:09:47.871Z,4.33
2016-12-13T09:11:09.372Z,4.31
2016-12-13T09:11:35.896Z,4.24
2016-12-13T09:11:57.674Z,4.17
2016-12-13T09:12:23.983Z,4.19
2016-12-13T09:12:49.788Z,4.23
2016-12-13T09:13:12.526Z,4.27
2016-12-13T09:13:40.023Z,4.27
2016-12-13T09:14:06.515Z,4.11
2016-12-13T09:14:28.267Z,4.10
2016-12-13T09:14:54.766Z,4.19
2016-12-13T09:16:09.524Z,3.98
2016-12-13T09:16:31.271Z,3.94
2016-12-13T09:16:52.997Z,3.91
2016-12-13T09:17:15.728Z,3.99
2016-12-13T09:17:37.447Z,4.11
2016-12-13T09:17:59.192Z,4.02
2016-12-13T09:18:25.704Z,3.95
2016-12-13T09:18:47.424Z,4.06
2016-12-13T09:19:35.658Z,4.01
2016-12-13T09:19:58.372Z,4.04
2016-12-13T09:20:20.152Z,4.06
2016-12-13T09:20:41.892Z,4.06
2016-12-13T09:21:03.617Z,4.14
2016-12-13T09:21:25.342Z,4.19
2016-12-13T09:21:47.073Z,4.21
2016-12-13T09:22:08.810Z,4.22
2016-12-13T09:22:30.534Z,4.32
2016-12-13T09:23:18.753Z,4.27
2016-12-13T09:23:43.230Z,4.24
2016-12-13T09:24:31.472Z,4.30
2016-12-13T09:24:57.960Z,4.12
2016-12-13T09:25:19.705Z,4.22
2016-12-13T09:25:41.436Z,4.33
2016-12-13T09:26:03.169Z,4.38
2016-12-13T09:26:25.872Z,4.31
2016-12-13T09:26:47.600Z,4.17
2016-12-13T09:27:35.824Z,4.17
2016-12-13T09:27:58.595Z,4.15
2016-12-13T09:28:21.323Z,4.22
2016-12-13T09:28:43.049Z,4.12
2016-12-13T09:29:11.574Z,4.22
2016-12-13T09:29:34.283Z,4.24
2016-12-13T09:29:56.053Z,4.32
2016-12-13T09:30:17.774Z,4.41
2016-12-13T09:30:39.507Z,4.47
2016-12-13T09:31:07.004Z,4.46
2016-12-13T09:31:34.513Z,4.50
2016-12-13T09:31:56.281Z,4.39
2016-12-13T09:32:27.545Z,4.34
2016-12-13T09:32:50.274Z,4.39
2016-12-13T09:33:25.533Z,4.43
2016-12-13T09:33:49.835Z,4.44
2016-12-13T09:34:11.566Z,4.39
2016-12-13T09:34:33.290Z,4.22
2016-12-13T09:34:55.021Z,4.16
2016-12-13T09:35:17.751Z,4.19
2016-12-13T09:35:39.752Z,4.23
2016-12-13T09:36:07.246Z,4.28
2016-12-13T09:36:29.981Z,4.30
2016-12-13T09:36:51.728Z,4.34
2016-12-13T09:38:06.307Z,4.31
2016-12-13T09:38:33.791Z,4.27
2016-12-13T09:38:55.517Z,4.20
2016-12-13T09:39:22.016Z,4.23
2016-12-13T09:39:43.752Z,4.17
2016-12-13T09:40:05.469Z,4.05
2016-12-13T09:40:31.960Z,4.06
2016-12-13T09:40:54.691Z,4.18
2016-12-13T09:41:18.408Z,4.26
2016-12-13T09:41:40.120Z,4.23
2016-12-13T09:42:01.847Z,4.11
2016-12-13T09:42:23.575Z,4.09
2016-12-13T09:42:51.069Z,4.17
2016-12-13T09:43:14.789Z,4.03
2016-12-13T09:44:03.002Z,4.14
2016-12-13T09:44:24.735Z,4.22
2016-12-13T09:44:46.460Z,4.10
2016-12-13T09:45:08.170Z,4.15
2016-12-13T09:45:29.888Z,4.20
2016-12-13T09:45:56.403Z,4.26
2016-12-13T09:46:18.120Z,4.23
2016-12-13T09:46:40.887Z,4.33
2016-12-13T09:47:05.288Z,4.30
2016-12-13T09:47:31.781Z,4.21
2016-12-13T09:47:53.528Z,4.16
2016-12-13T09:48:15.251Z,4.06
2016-12-13T09:48:36.989Z,4.14
2016-12-13T09:48:59.719Z,4.19
2016-12-13T09:49:22.446Z,4.13
2016-12-13T09:49:44.177Z,4.06
2016-12-13T09:50:06.897Z,4.17
2016-12-13T09:50:29.637Z,4.22
2016-12-13T09:50:51.365Z,4.27
2016-12-13T09:51:13.091Z,4.33
2016-12-13T09:51:34.837Z,4.32
2016-12-13T09:51:56.558Z,4.33
2016-12-13T09:52:49.544Z,4.45
2016-12-13T09:53:16.032Z,4.46
2016-12-13T09:53:38.784Z,4.42
2016-12-13T09:54:00.525Z,4.42
2016-12-13T09:54:22.250Z,4.41
2016-12-13T09:54:44.977Z,4.36
2016-12-13T09:55:06.699Z,4.36
2016-12-13T09:55:31.230Z,4.37
2016-12-13T09:56:02.200Z,4.37
2016-12-13T09:57:10.113Z,4.21
2016-12-13T09:57:36.611Z,4.24
2016-12-13T09:58:29.597Z,4.18
2016-12-13T09:58:52.324Z,4.11
2016-12-13T09:59:14.044Z,4.00
2016-12-13T09:59:35.771Z,4.05
2016-12-13T09:59:57.502Z,4.03
2016-12-13T10:00:22.102Z,3.84
2016-12-13T10:00:43.837Z,3.86
2016-12-13T10:01:36.838Z,3.90
2016-12-13T10:01:58.606Z,3.91
2016-12-13T10:02:22.883Z,3.91
2016-12-13T10:02:44.609Z,3.93
2016-12-13T10:03:06.335Z,3.94
2016-12-13T10:03:29.072Z,4.01
2016-12-13T10:04:49.583Z,3.96
2016-12-13T10:05:11.302Z,4.03
2016-12-13T10:05:34.020Z,3.98
2016-12-13T10:05:55.739Z,3.93
2016-12-13T10:06:17.465Z,3.98
2016-12-13T10:06:39.196Z,3.97
2016-12-13T10:07:00.915Z,4.00
2016-12-13T10:07:27.421Z,4.01
2016-12-13T10:07:50.151Z,4.04
2016-12-13T10:08:12.881Z,3.99
2016-12-13T10:09:02.125Z,4.08
2016-12-13T10:09:23.836Z,4.06
2016-12-13T10:09:45.565Z,3.89
2016-12-13T10:10:07.307Z,3.88
2016-12-13T10:10:29.045Z,3.95
2016-12-13T10:10:50.763Z,4.00
2016-12-13T10:11:17.256Z,3.99
2016-12-13T10:11:38.981Z,3.95
2016-12-13T10:12:00.699Z,4.04
2016-12-13T10:12:22.429Z,4.07
2016-12-13T10:12:44.148Z,4.06
2016-12-13T10:13:05.882Z,4.09
2016-12-13T10:13:27.619Z,4.08
2016-12-13T10:13:52.908Z,4.11
2016-12-13T10:14:14.666Z,4.10
2016-12-13T10:14:37.375Z,4.16
2016-12-13T10:14:59.120Z,4.09
2016-12-13T10:15:20.853Z,4.06
2016-12-13T10:15:42.610Z,3.99
2016-12-13T10:16:35.592Z,4.01